Time;durP1;ratioP1;P1;durP2;ratioP2;P2;SDS_P1;SDS_P2;PMS_P1;PMS_P2;Temp;Humidity;BMP_temperature;BMP_pressure;BME280_temperature;BME280_humidity;BME280_pressure;Samples;Min_cycle;Max_cycle;Signal;HPM_P1;HPM_P2
2021/08/07 00:02:16;;;;;;;8.53;6.27;;;;;;;11.90;77.17;97714.80;512109;1093;103058;-40
2021/08/07 00:12:24;;;;;;;11.40;7.37;;;;;;;11.95;77.28;97702.36;512139;1093;103111;-41
2021/08/07 00:22:32;;;;;;;11.60;6.83;;;;;;;11.99;77.24;97703.43;512085;1092;103060;-41
2021/08/07 00:32:41;;;;;;;13.13;7.73;;;;;;;11.92;77.39;97707.39;512143;1092;103128;-41
2021/08/07 00:42:49;;;;;;;13.23;9.27;;;;;;;11.81;77.11;97705.75;512266;1092;103130;-41
2021/08/07 00:52:57;;;;;;;12.60;8.53;;;;;;;11.78;77.69;97711.53;512032;1092;103125;-41
2021/08/07 01:03:10;;;;;;;15.83;9.57;;;;;;;11.75;77.73;97706.77;512189;1092;103146;-41
2021/08/07 01:13:17;;;;;;;16.57;10.13;;;;;;;11.56;77.90;97720.45;511982;1091;103077;-41
2021/08/07 01:23:31;;;;;;;17.90;10.20;;;;;;;11.36;77.74;97720.38;512143;1092;103133;-41
2021/08/07 01:33:42;;;;;;;12.93;8.37;;;;;;;11.34;78.02;97730.39;512652;1092;103195;-41
2021/08/07 01:43:51;;;;;;;15.50;9.23;;;;;;;11.47;78.43;97729.14;512161;1092;103170;-40
2021/08/07 01:54:03;;;;;;;15.60;10.18;;;;;;;11.35;78.44;97727.48;512114;1092;103496;-41
2021/08/07 02:04:10;;;;;;;17.57;9.73;;;;;;;11.30;78.43;97738.05;511925;1092;103156;-41
2021/08/07 02:14:18;;;;;;;12.87;9.40;;;;;;;11.40;78.78;97745.27;511967;1092;103181;-42
2021/08/07 02:24:25;;;;;;;12.98;8.55;;;;;;;11.55;78.98;97740.03;512127;1091;103512;-42
2021/08/07 02:34:34;;;;;;;12.40;8.10;;;;;;;11.68;79.07;97736.14;512125;1092;103515;-41
2021/08/07 02:44:43;;;;;;;11.23;7.80;;;;;;;11.75;79.28;97741.19;512082;1092;103168;-41
2021/08/07 02:54:52;;;;;;;13.33;8.60;;;;;;;11.87;79.38;97732.02;512226;1091;103159;-42
2021/08/07 03:04:58;;;;;;;;;;;;;;;11.87;79.56;97742.61;512153;1091;103167;-41
2021/08/07 03:15:07;;;;;;;16.20;9.07;;;;;;;11.81;78.90;97740.18;511984;1092;103153;-42
2021/08/07 03:25:13;;;;;;;;;;;;;;;11.67;79.37;97740.64;512250;1092;103149;-41
2021/08/07 03:35:22;;;;;;;14.23;8.17;;;;;;;12.01;79.92;97736.81;511986;1091;103133;-41
2021/08/07 03:45:30;;;;;;;16.78;9.10;;;;;;;12.37;79.58;97740.36;512004;1092;103220;-41
2021/08/07 03:55:38;;;;;;;15.80;8.03;;;;;;;12.60;79.43;97745.17;511976;1092;103156;-41
2021/08/07 04:05:46;;;;;;;14.00;9.90;;;;;;;13.16;79.40;97758.42;511926;1092;103212;-41
2021/08/07 04:15:54;;;;;;;11.93;8.57;;;;;;;14.43;78.86;97773.98;512132;1091;103071;-41
2021/08/07 04:26:02;;;;;;;10.30;8.20;;;;;;;14.64;78.06;97775.45;512156;1096;103117;-39
2021/08/07 04:36:10;;;;;;;11.87;9.17;;;;;;;14.76;78.18;97772.45;512224;1092;103141;-41
2021/08/07 04:46:18;;;;;;;9.47;7.07;;;;;;;16.25;77.29;97773.37;512093;1093;103495;-41
2021/08/07 04:56:26;;;;;;;9.40;7.23;;;;;;;17.24;77.41;97781.25;512081;1092;103470;-40
2021/08/07 05:06:34;;;;;;;8.55;6.95;;;;;;;18.93;76.66;97793.69;511944;1092;103183;-40
2021/08/07 05:16:42;;;;;;;8.55;6.55;;;;;;;19.83;75.84;97801.63;512142;1092;103409;-39
2021/08/07 05:26:50;;;;;;;8.18;6.10;;;;;;;20.63;74.79;97805.81;511947;1092;103144;-41
2021/08/07 05:36:58;;;;;;;7.58;6.83;;;;;;;21.34;73.96;97819.72;512061;1091;103127;-41
2021/08/07 05:47:03;;;;;;;5.80;5.30;;;;;;;21.78;73.22;97823.09;512095;1092;103115;-41
2021/08/07 05:57:11;;;;;;;8.63;5.40;;;;;;;22.17;72.12;97829.27;512009;1093;103438;-41
2021/08/07 06:17:24;;;;;;;5.03;4.53;;;;;;;23.06;70.82;97849.64;512040;1092;103129;-41
2021/08/07 06:27:32;;;;;;;4.47;4.07;;;;;;;23.40;68.94;97855.83;512006;1091;103418;-40
2021/08/07 06:37:41;;;;;;;8.40;4.10;;;;;;;23.82;69.10;97870.83;511849;1092;103082;-42
2021/08/07 06:47:49;;;;;;;7.10;3.70;;;;;;;24.08;67.61;97865.13;512076;1093;103156;-40
2021/08/07 06:57:57;;;;;;;3.87;2.80;;;;;;;24.30;66.49;97866.63;512028;1093;103144;-41
2021/08/07 07:08:06;;;;;;;6.30;3.27;;;;;;;24.08;63.96;97875.93;511995;1093;103174;-42
2021/08/07 07:18:13;;;;;;;2.37;2.17;;;;;;;24.38;64.42;97879.26;511761;1093;103522;-41
2021/08/07 07:28:22;;;;;;;4.87;2.70;;;;;;;24.86;64.51;97890.36;511938;1093;103140;-44
2021/08/07 07:38:31;;;;;;;4.20;2.37;;;;;;;24.93;61.96;97895.97;512123;1091;103141;-42
2021/08/07 07:48:39;;;;;;;3.53;2.43;;;;;;;25.08;62.30;97898.01;512269;1091;103131;-42
2021/08/07 07:58:46;;;;;;;5.13;2.43;;;;;;;24.98;61.86;97910.04;512106;1092;103712;-43
2021/08/07 08:08:54;;;;;;;2.30;1.87;;;;;;;25.25;61.25;97913.95;512044;1093;103129;-42
2021/08/07 08:19:05;;;;;;;2.53;2.33;;;;;;;25.60;60.53;97914.16;512049;1095;103153;-42
2021/08/07 08:29:13;;;;;;;5.00;2.40;;;;;;;25.41;59.78;97905.89;512074;1092;103126;-43
2021/08/07 08:39:21;;;;;;;3.80;2.30;;;;;;;25.33;60.10;97914.95;512963;1092;103098;-41
2021/08/07 08:59:38;;;;;;;9.75;3.15;;;;;;;25.60;56.75;97924.99;512591;1092;103071;-42
2021/08/07 09:09:48;;;;;;;2.37;2.17;;;;;;;25.82;57.56;97920.97;512336;1092;103729;-42
2021/08/07 09:19:54;;;;;;;2.37;2.10;;;;;;;26.28;57.27;97924.86;512372;1092;103498;-43
2021/08/07 09:30:04;;;;;;;2.78;1.73;;;;;;;26.58;55.26;97924.44;512383;1092;103114;-43
2021/08/07 09:40:14;;;;;;;3.03;1.93;;;;;;;26.83;55.88;97923.08;512078;1092;103138;-43
2021/08/07 09:50:23;;;;;;;4.97;2.00;;;;;;;26.14;54.85;97937.26;512737;1092;103112;-42
2021/08/07 10:00:35;;;;;;;3.70;2.17;;;;;;;25.44;55.91;97936.89;512642;1092;103166;-42
2021/08/07 10:10:45;;;;;;;1.97;1.67;;;;;;;25.76;56.29;97937.80;512255;1092;103113;-41
2021/08/07 10:20:53;;;;;;;2.90;1.70;;;;;;;26.28;55.36;97927.58;512625;1093;103125;-42
2021/08/07 10:30:58;;;;;;;2.55;1.80;;;;;;;26.61;54.97;97921.80;512139;1092;103113;-43
2021/08/07 10:41:07;;;;;;;2.73;1.90;;;;;;;26.71;54.13;97925.89;512111;1092;103473;-42
2021/08/07 10:51:35;;;;;;;2.97;1.67;;;;;;;25.87;54.37;97936.97;512339;1092;103112;-42
2021/08/07 11:01:44;;;;;;;1.60;1.50;;;;;;;26.59;53.76;97920.58;512181;1092;103819;-42
2021/08/07 11:32:55;;;;;;;1.70;1.60;;;;;;;25.99;52.86;97919.84;512125;1092;103126;-42
2021/08/07 11:43:06;;;;;;;1.80;1.53;;;;;;;26.39;51.60;97919.72;512111;1092;103142;-41
2021/08/07 11:53:15;;;;;;;1.50;1.40;;;;;;;26.69;51.19;97917.31;512045;1092;104395;-42
2021/08/07 12:03:23;;;;;;;1.90;1.80;;;;;;;26.54;50.24;97913.51;512183;1092;103140;-42
2021/08/07 12:13:34;;;;;;;2.43;1.80;;;;;;;26.51;48.88;97908.01;512062;1092;103187;-40
2021/08/07 12:23:43;;;;;;;4.60;2.13;;;;;;;26.55;48.77;97892.61;512105;1092;103128;-42
2021/08/07 12:33:52;;;;;;;2.73;2.53;;;;;;;26.67;48.04;97889.77;512007;1091;104958;-42
2021/08/07 12:44:00;;;;;;;1.90;1.80;;;;;;;26.48;48.30;97900.55;512188;1092;103168;-41
2021/08/07 13:04:39;;;;;;;2.73;2.50;;;;;;;26.21;47.95;97897.56;512424;1091;103112;-41
2021/08/07 13:15:05;;;;;;;2.53;2.40;;;;;;;26.37;49.05;97888.69;512547;1092;103114;-43
2021/08/07 13:25:18;;;;;;;2.57;1.70;;;;;;;26.47;48.35;97886.21;512039;1092;103118;-42
2021/08/07 13:35:26;;;;;;;2.90;2.17;;;;;;;26.60;48.35;97890.41;512158;1092;103154;-41
2021/08/07 13:45:34;;;;;;;1.60;1.50;;;;;;;26.57;45.53;97884.91;512164;1092;103223;-41
2021/08/07 13:55:42;;;;;;;64.43;16.53;;;;;;;26.29;46.96;97874.94;512369;1092;103111;-43
2021/08/07 14:05:50;;;;;;;1.63;1.53;;;;;;;26.05;47.24;97853.45;512544;1092;103143;-41
2021/08/07 14:15:58;;;;;;;1.53;1.43;;;;;;;25.99;47.30;97850.20;511981;1092;103522;-41
2021/08/07 14:26:06;;;;;;;1.83;1.50;;;;;;;26.01;47.36;97847.14;512026;1092;103060;-41
2021/08/07 14:36:14;;;;;;;1.47;1.37;;;;;;;25.86;47.21;97847.94;512163;1092;103115;-41
2021/08/07 14:46:22;;;;;;;0.95;0.90;;;;;;;25.77;45.13;97831.84;512056;1092;103217;-41
2021/08/07 15:06:37;;;;;;;1.10;1.00;;;;;;;25.84;45.95;97813.09;512123;1091;103131;-42
2021/08/07 15:16:45;;;;;;;3.55;1.50;;;;;;;25.87;46.50;97817.02;511979;1094;103118;-42
2021/08/07 15:26:53;;;;;;;1.53;0.97;;;;;;;25.62;45.71;97806.31;512151;1092;103461;-42
2021/08/07 15:37:01;;;;;;;1.70;1.00;;;;;;;25.59;44.31;97817.84;512335;1092;103125;-40
2021/08/07 15:47:09;;;;;;;1.63;0.87;;;;;;;25.56;45.38;97815.83;512190;1093;103130;-43
2021/08/07 15:57:16;;;;;;;1.53;0.80;;;;;;;25.51;45.81;97816.06;512023;1092;103112;-42
2021/08/07 16:17:31;;;;;;;1.43;1.10;;;;;;;25.27;45.53;97813.48;512178;1092;103053;-40
2021/08/07 16:27:38;;;;;;;3.73;1.20;;;;;;;25.26;45.93;97814.63;512000;1092;103412;-42
2021/08/07 16:37:45;;;;;;;5.43;1.50;;;;;;;25.14;46.17;97825.52;511931;1093;103223;-42
2021/08/07 16:47:53;;;;;;;1.57;1.40;;;;;;;24.89;46.52;97813.97;511963;1091;103470;-42
2021/08/07 16:58:12;;;;;;;2.03;1.53;;;;;;;24.64;47.05;97829.46;512103;1092;103111;-42
2021/08/07 17:08:20;;;;;;;3.57;2.13;;;;;;;24.34;47.13;97831.62;512032;1092;103140;-41
2021/08/07 17:18:28;;;;;;;3.50;2.10;;;;;;;24.07;48.08;97828.45;512204;1093;103161;-42
2021/08/07 17:28:40;;;;;;;3.77;2.33;;;;;;;23.67;49.05;97841.80;512046;1093;103111;-42
2021/08/07 17:38:47;;;;;;;4.50;3.43;;;;;;;23.19;50.17;97837.80;512123;1092;103137;-42
2021/08/07 17:48:55;;;;;;;4.55;3.85;;;;;;;22.66;51.71;97836.58;512115;1093;103110;-41
2021/08/07 18:09:09;;;;;;;64.93;50.53;;;;;;;21.64;54.00;97839.42;512175;1093;103193;-40
2021/08/07 18:19:17;;;;;;;9.83;6.30;;;;;;;21.17;54.64;97843.91;511986;1093;103151;-41
2021/08/07 18:29:25;;;;;;;11.67;5.97;;;;;;;20.93;55.83;97863.20;511990;1092;103348;-41
2021/08/07 18:39:34;;;;;;;9.28;7.88;;;;;;;20.68;56.66;97867.44;511963;1092;103611;-41
2021/08/07 18:49:42;;;;;;;10.30;6.83;;;;;;;20.33;57.14;97863.05;512218;1093;103109;-41
2021/08/07 18:59:48;;;;;;;;;;;;;;;20.03;58.17;97875.41;512029;1093;103162;-41
2021/08/07 19:09:56;;;;;;;43.90;30.93;;;;;;;19.83;59.01;97856.06;511996;1093;103150;-42
2021/08/07 19:20:03;;;;;;;11.78;9.58;;;;;;;19.65;59.43;97842.90;512123;1092;103464;-41
2021/08/07 19:30:08;;;;;;;19.13;9.80;;;;;;;19.97;59.74;97823.78;512092;1092;103131;-41
2021/08/07 19:40:13;;;;;;;14.10;8.20;;;;;;;20.09;59.70;97832.02;512123;1095;103172;-41
2021/08/07 19:50:20;;;;;;;18.97;11.37;;;;;;;20.12;59.71;97834.11;512284;1094;103147;-42
2021/08/07 20:00:29;;;;;;;29.87;14.20;;;;;;;20.01;59.83;97840.84;511955;1095;103135;-43
2021/08/07 20:10:36;;;;;;;28.57;16.10;;;;;;;19.86;60.11;97835.88;512181;1095;103143;-41
2021/08/07 20:20:45;;;;;;;40.57;19.60;;;;;;;19.78;60.35;97823.22;512196;1095;103076;-42
2021/08/07 20:30:53;;;;;;;42.27;20.67;;;;;;;19.88;60.48;97828.34;512372;1092;103441;-42
2021/08/07 20:41:01;;;;;;;;;;;;;;;19.85;61.01;97815.52;512176;1092;103427;-43
2021/08/07 20:51:09;;;;;;;31.35;15.95;;;;;;;19.80;61.17;97810.29;512037;1092;103467;-42
2021/08/07 21:01:17;;;;;;;34.40;16.80;;;;;;;19.92;60.85;97813.20;512111;1093;103155;-42
2021/08/07 21:11:24;;;;;;;60.23;24.00;;;;;;;20.00;60.54;97809.74;512035;1092;103591;-41
2021/08/07 21:21:31;;;;;;;48.80;21.23;;;;;;;20.05;60.95;97804.23;512271;1092;103111;-42
2021/08/07 21:31:40;;;;;;;37.25;13.15;;;;;;;20.18;60.47;97811.38;512018;1092;103123;-41
2021/08/07 21:41:48;;;;;;;19.03;9.37;;;;;;;20.28;60.42;97802.23;512307;1092;103141;-40
2021/08/07 21:51:55;;;;;;;9.60;5.58;;;;;;;20.30;60.88;97807.30;512073;1093;103136;-40
2021/08/07 22:02:04;;;;;;;6.23;4.25;;;;;;;20.25;61.10;97789.45;511972;1093;103156;-40
2021/08/07 22:12:12;;;;;;;4.73;3.33;;;;;;;20.24;60.78;97787.87;512262;1092;103425;-43
2021/08/07 22:22:19;;;;;;;;;;;;;;;20.23;60.95;97772.86;512117;1092;103439;-42
2021/08/07 22:32:26;;;;;;;5.37;3.70;;;;;;;20.18;61.44;97765.75;512325;1092;103178;-41
2021/08/07 22:42:34;;;;;;;4.08;3.25;;;;;;;20.28;61.12;97761.18;512070;1092;103512;-40
2021/08/07 22:52:41;;;;;;;6.25;3.05;;;;;;;20.41;61.66;97752.23;512408;1091;103070;-42
2021/08/07 23:02:49;;;;;;;3.77;3.37;;;;;;;20.53;61.37;97733.59;512098;1093;103143;-39
2021/08/07 23:12:55;;;;;;;;;;;;;;;20.58;61.73;97711.15;512261;1093;103114;-42
2021/08/07 23:23:03;;;;;;;6.50;3.73;;;;;;;20.55;61.69;97715.27;512059;1092;103102;-42
2021/08/07 23:33:11;;;;;;;5.87;4.00;;;;;;;20.49;61.67;97703.89;512090;1093;103077;-43
2021/08/07 23:53:26;;;;;;;7.90;3.80;;;;;;;20.58;61.75;97682.39;511988;1091;103117;-41
